createdAt,value
2017-04-03T00:00:28.644Z,82.43
2017-04-03T00:01:30.066Z,82.38
2017-04-03T00:02:31.498Z,82.19
2017-04-03T00:03:32.929Z,82.15
2017-04-03T00:04:34.360Z,83.48
2017-04-03T00:05:35.779Z,84.33
2017-04-03T00:06:37.923Z,85.38
2017-04-03T00:07:39.410Z,85.00
2017-04-03T00:08:40.830Z,85.19
2017-04-03T00:09:42.254Z,85.00
2017-04-03T00:10:43.685Z,84.52
2017-04-03T00:11:45.109Z,85.00
2017-04-03T00:12:46.543Z,85.38
2017-04-03T00:13:47.969Z,84.43
2017-04-03T00:14:49.496Z,84.05
2017-04-03T00:15:50.908Z,83.95
2017-04-03T00:16:52.340Z,82.53
2017-04-03T00:17:53.851Z,83.00
2017-04-03T00:18:55.269Z,83.10
2017-04-03T00:19:56.695Z,83.91
2017-04-03T00:20:58.118Z,84.39
2017-04-03T00:21:59.549Z,84.48
2017-04-03T00:23:00.967Z,84.14
2017-04-03T00:24:02.384Z,84.62
2017-04-03T00:25:03.907Z,84.05
2017-04-03T00:26:05.395Z,83.95
2017-04-03T00:27:06.815Z,84.72
2017-04-03T00:28:08.242Z,84.43
2017-04-03T00:29:09.728Z,84.33
2017-04-03T00:30:11.148Z,84.33
2017-04-03T00:31:12.571Z,85.47
2017-04-03T00:32:14.008Z,85.10
2017-04-03T00:33:16.350Z,85.19
2017-04-03T00:34:17.792Z,84.62
2017-04-03T00:35:20.020Z,83.95
2017-04-03T00:36:21.441Z,83.86
2017-04-03T00:37:22.860Z,83.86
2017-04-03T00:38:24.281Z,83.76
2017-04-03T00:39:25.719Z,84.62
2017-04-03T00:40:27.162Z,85.34
2017-04-03T00:41:28.581Z,85.38
2017-04-03T00:42:30.002Z,85.28
2017-04-03T00:43:31.435Z,84.05
2017-04-03T00:44:32.857Z,84.58
2017-04-03T00:45:34.278Z,85.53
2017-04-03T00:46:35.698Z,86.00
2017-04-03T00:47:37.120Z,85.72
2017-04-03T00:48:38.539Z,84.95
2017-04-03T00:49:39.964Z,84.48
2017-04-03T00:50:41.386Z,85.43
2017-04-03T00:51:42.813Z,85.24
2017-04-03T00:52:44.240Z,85.43
2017-04-03T00:53:45.661Z,85.05
2017-04-03T00:54:47.087Z,84.77
2017-04-03T00:55:48.513Z,84.14
2017-04-03T00:56:50.786Z,84.01
2017-04-03T00:57:53.026Z,85.53
2017-04-03T00:58:54.464Z,87.29
2017-04-03T00:59:55.952Z,87.10
2017-04-03T01:00:57.402Z,87.57
2017-04-03T01:01:58.839Z,87.29
2017-04-03T01:03:00.256Z,86.91
2017-04-03T01:04:01.699Z,87.29
2017-04-03T01:05:03.135Z,87.76
2017-04-03T01:06:04.559Z,88.05
2017-04-03T01:07:05.984Z,88.43
2017-04-03T01:08:07.404Z,88.62
2017-04-03T01:09:08.829Z,88.24
2017-04-03T01:10:10.257Z,87.67
2017-04-03T01:11:11.676Z,87.43
2017-04-03T01:12:13.101Z,87.14
2017-04-03T01:13:14.523Z,86.86
2017-04-03T01:14:15.947Z,85.91
2017-04-03T01:15:17.367Z,85.24
2017-04-03T01:16:18.796Z,85.24
2017-04-03T01:17:20.213Z,85.43
2017-04-03T01:18:21.637Z,83.72
2017-04-03T01:19:23.062Z,83.91
2017-04-03T01:20:24.485Z,84.58
2017-04-03T01:21:25.917Z,84.86
2017-04-03T01:22:27.338Z,85.96
2017-04-03T01:23:28.764Z,86.53
2017-04-03T01:24:30.199Z,87.01
2017-04-03T01:25:32.520Z,87.95
2017-04-03T01:26:33.938Z,87.86
2017-04-03T01:27:35.360Z,87.29
2017-04-03T01:28:36.791Z,86.24
2017-04-03T01:29:38.220Z,85.34
2017-04-03T01:30:39.641Z,84.91
2017-04-03T01:31:41.064Z,85.39
2017-04-03T01:32:42.492Z,84.82
2017-04-03T01:33:43.913Z,86.53
2017-04-03T01:34:45.352Z,85.77
2017-04-03T01:35:46.772Z,86.05
2017-04-03T01:36:48.195Z,86.72
2017-04-03T01:37:49.626Z,86.43
2017-04-03T01:38:51.073Z,86.82
2017-04-03T01:39:52.502Z,86.53
2017-04-03T01:40:53.933Z,87.01
2017-04-03T01:41:55.360Z,86.67
2017-04-03T01:42:56.789Z,84.95
2017-04-03T01:43:58.207Z,87.19
2017-04-03T01:44:59.632Z,89.04
2017-04-03T01:46:01.054Z,88.57
2017-04-03T01:47:02.475Z,88.09
2017-04-03T01:48:03.903Z,87.71
2017-04-03T01:49:05.335Z,87.81
2017-04-03T01:50:06.792Z,89.04
2017-04-03T01:51:08.855Z,88.95
2017-04-03T01:52:10.279Z,87.90
2017-04-03T01:53:11.703Z,88.38
2017-04-03T01:54:13.129Z,88.95
2017-04-03T01:55:14.549Z,89.71
2017-04-03T01:56:15.972Z,90.04
2017-04-03T01:57:17.407Z,90.52
2017-04-03T01:58:18.827Z,90.61
2017-04-03T01:59:20.245Z,90.33
2017-04-03T02:00:21.680Z,90.04
2017-04-03T02:01:23.095Z,90.33
2017-04-03T02:02:24.517Z,90.52
2017-04-03T02:03:25.940Z,90.61
2017-04-03T02:04:27.397Z,90.52
2017-04-03T02:05:28.819Z,90.04
2017-04-03T02:06:30.257Z,90.61
2017-04-03T02:07:31.679Z,90.04
2017-04-03T02:08:33.102Z,90.33
2017-04-03T02:09:34.524Z,90.52
2017-04-03T02:10:35.951Z,90.52
2017-04-03T02:11:37.376Z,90.23
2017-04-03T02:12:38.798Z,90.37
2017-04-03T02:13:40.216Z,90.42
2017-04-03T02:14:41.647Z,90.33
2017-04-03T02:15:43.069Z,90.61
2017-04-03T02:16:44.496Z,90.99
2017-04-03T02:17:45.916Z,91.28
2017-04-03T02:18:47.341Z,91.47
2017-04-03T02:19:48.764Z,92.22
2017-04-03T02:20:50.190Z,92.61
2017-04-03T02:21:51.614Z,92.41
2017-04-03T02:22:53.037Z,92.41
2017-04-03T02:23:54.458Z,92.61
2017-04-03T02:24:55.888Z,91.85
2017-04-03T02:25:57.312Z,92.80
2017-04-03T02:26:58.737Z,92.03
2017-04-03T02:28:00.165Z,91.66
2017-04-03T02:29:01.589Z,91.66
2017-04-03T02:30:03.013Z,92.32
2017-04-03T02:31:04.448Z,92.61
2017-04-03T02:32:05.876Z,93.65
2017-04-03T02:33:07.302Z,93.55
2017-04-03T02:34:08.724Z,92.70
2017-04-03T02:35:10.152Z,92.56
2017-04-03T02:36:11.578Z,92.99
2017-04-03T02:37:13.085Z,92.61
2017-04-03T02:38:14.521Z,93.65
2017-04-03T02:39:15.981Z,93.55
2017-04-03T02:40:17.409Z,93.46
2017-04-03T02:41:18.836Z,94.51
2017-04-03T02:42:20.246Z,93.32
2017-04-03T02:43:21.692Z,93.79
2017-04-03T02:44:23.118Z,93.70
2017-04-03T02:45:25.335Z,93.89
2017-04-03T02:46:26.756Z,92.94
2017-04-03T02:47:28.180Z,93.41
2017-04-03T02:48:29.611Z,94.22
2017-04-03T02:49:31.033Z,94.27
2017-04-03T02:50:32.459Z,95.27
2017-04-03T02:51:33.895Z,95.03
2017-04-03T02:52:35.324Z,95.36
2017-04-03T02:53:36.751Z,95.65
2017-04-03T02:54:38.174Z,95.79
2017-04-03T02:55:40.407Z,95.70
2017-04-03T02:56:42.787Z,95.12
2017-04-03T02:57:44.247Z,95.41
2017-04-03T02:58:45.636Z,94.93
2017-04-03T02:59:47.058Z,95.22
2017-04-03T03:00:48.480Z,96.17
2017-04-03T03:01:49.908Z,95.32
2017-04-03T03:02:51.339Z,95.32
2017-04-03T03:03:52.760Z,95.70
2017-04-03T03:04:54.192Z,95.70
2017-04-03T03:05:55.614Z,96.55
2017-04-03T03:06:57.044Z,96.26
2017-04-03T03:07:58.488Z,95.70
2017-04-03T03:08:59.912Z,96.12
2017-04-03T03:10:01.360Z,96.17
2017-04-03T03:11:02.796Z,95.89
2017-04-03T03:12:04.212Z,95.60
2017-04-03T03:13:05.639Z,96.08
2017-04-03T03:14:07.071Z,96.26
2017-04-03T03:15:09.333Z,97.03
2017-04-03T03:16:12.142Z,96.84
2017-04-03T03:17:13.566Z,96.79
2017-04-03T03:18:14.990Z,97.41
2017-04-03T03:19:16.413Z,97.60
2017-04-03T03:20:17.837Z,97.50
2017-04-03T03:21:19.260Z,97.69
2017-04-03T03:22:20.687Z,97.41
2017-04-03T03:23:22.108Z,97.69
2017-04-03T03:24:23.536Z,97.60
2017-04-03T03:25:24.957Z,97.22
2017-04-03T03:26:26.387Z,97.41
2017-04-03T03:27:27.818Z,98.27
2017-04-03T03:28:29.261Z,98.17
2017-04-03T03:29:30.722Z,98.08
2017-04-03T03:30:32.100Z,97.79
2017-04-03T03:31:33.524Z,98.27
2017-04-03T03:32:34.951Z,98.08
2017-04-03T03:33:36.373Z,98.36
2017-04-03T03:34:38.673Z,98.46
2017-04-03T03:35:40.099Z,98.22
2017-04-03T03:36:41.518Z,98.93
2017-04-03T03:37:42.940Z,98.93
2017-04-03T03:38:44.361Z,99.12
2017-04-03T03:39:45.792Z,99.12
2017-04-03T03:40:47.217Z,99.02
2017-04-03T03:41:48.636Z,98.83
2017-04-03T03:42:50.058Z,98.65
2017-04-03T03:43:51.480Z,98.46
2017-04-03T03:44:52.909Z,98.74
2017-04-03T03:45:54.334Z,98.74
2017-04-03T03:46:55.764Z,98.65
2017-04-03T03:47:57.178Z,98.74
2017-04-03T03:48:58.607Z,99.22
2017-04-03T03:50:00.614Z,99.12
2017-04-03T03:51:02.047Z,98.93
2017-04-03T03:52:03.482Z,99.50
2017-04-03T03:53:04.911Z,99.31
2017-04-03T03:54:06.344Z,99.50
2017-04-03T03:55:07.768Z,99.31
2017-04-03T03:56:09.249Z,99.22
2017-04-03T03:57:10.671Z,99.60
2017-04-03T03:58:12.102Z,98.83
2017-04-03T03:59:13.534Z,98.65
2017-04-03T04:00:14.967Z,98.17
2017-04-03T04:01:16.397Z,98.65
2017-04-03T04:02:17.823Z,98.36
2017-04-03T04:03:19.250Z,98.27
2017-04-03T04:04:20.676Z,98.65
2017-04-03T04:05:22.107Z,98.74
2017-04-03T04:06:23.556Z,97.69
2017-04-03T04:07:25.016Z,97.88
2017-04-03T04:08:26.446Z,97.03
2017-04-03T04:09:27.876Z,96.65
2017-04-03T04:10:29.296Z,96.65
2017-04-03T04:11:30.720Z,97.79
2017-04-03T04:12:32.145Z,96.94
2017-04-03T04:13:33.563Z,96.08
2017-04-03T04:14:34.992Z,96.84
2017-04-03T04:15:36.427Z,96.55
2017-04-03T04:16:37.850Z,96.36
2017-04-03T04:17:39.272Z,96.74
2017-04-03T04:18:40.721Z,96.65
2017-04-03T04:19:42.140Z,96.74
2017-04-03T04:20:43.574Z,95.89
2017-04-03T04:21:44.995Z,96.26
2017-04-03T04:22:46.424Z,96.17
2017-04-03T04:23:47.881Z,95.70
2017-04-03T04:24:49.271Z,96.08
2017-04-03T04:25:50.701Z,95.60
2017-04-03T04:26:52.139Z,96.08
2017-04-03T04:27:53.561Z,95.70
2017-04-03T04:28:54.986Z,96.36
2017-04-03T04:29:56.415Z,95.32
2017-04-03T04:30:57.844Z,95.22
2017-04-03T04:31:59.269Z,95.32
2017-04-03T04:33:00.691Z,95.32
2017-04-03T04:34:02.117Z,95.51
2017-04-03T04:35:03.540Z,95.03
2017-04-03T04:36:04.970Z,95.12
2017-04-03T04:37:06.390Z,94.93
2017-04-03T04:38:07.822Z,95.12
2017-04-03T04:39:09.253Z,95.22
2017-04-03T04:40:10.681Z,95.51
2017-04-03T04:41:12.103Z,94.46
2017-04-03T04:42:13.535Z,95.17
2017-04-03T04:43:14.952Z,94.79
2017-04-03T04:44:16.383Z,95.12
2017-04-03T04:45:17.810Z,94.42
2017-04-03T04:46:19.250Z,94.56
2017-04-03T04:47:20.683Z,94.93
2017-04-03T04:48:22.149Z,94.65
2017-04-03T04:49:23.532Z,94.70
2017-04-03T04:50:24.954Z,94.18
2017-04-03T04:51:26.383Z,94.46
2017-04-03T04:52:27.805Z,95.22
2017-04-03T04:53:29.274Z,95.32
2017-04-03T04:54:30.653Z,94.84
2017-04-03T04:55:32.080Z,94.42
2017-04-03T04:56:33.497Z,93.74
2017-04-03T04:57:34.925Z,93.37
2017-04-03T04:58:36.347Z,93.60
2017-04-03T04:59:37.771Z,94.08
2017-04-03T05:00:39.219Z,93.60
2017-04-03T05:01:40.640Z,93.27
2017-04-03T05:02:42.061Z,93.08
2017-04-03T05:03:43.496Z,92.79
2017-04-03T05:04:44.919Z,92.70
2017-04-03T05:05:47.097Z,93.32
2017-04-03T05:06:48.517Z,93.51
2017-04-03T05:07:49.944Z,93.23
2017-04-03T05:08:51.368Z,94.27
2017-04-03T05:09:52.803Z,94.93
2017-04-03T05:10:54.232Z,93.46
2017-04-03T05:11:55.659Z,92.60
2017-04-03T05:12:57.089Z,93.08
2017-04-03T05:13:58.512Z,92.99
2017-04-03T05:14:59.935Z,93.46
2017-04-03T05:16:01.366Z,93.55
2017-04-03T05:17:02.790Z,93.46
2017-04-03T05:18:04.219Z,93.18
2017-04-03T05:19:05.642Z,93.55
2017-04-03T05:20:07.076Z,92.79
2017-04-03T05:21:08.498Z,92.60
2017-04-03T05:22:09.922Z,92.70
2017-04-03T05:23:11.346Z,93.60
2017-04-03T05:24:12.769Z,93.79
2017-04-03T05:25:14.209Z,93.60
2017-04-03T05:26:15.625Z,93.70
2017-04-03T05:27:17.046Z,93.65
2017-04-03T05:28:18.486Z,93.41
2017-04-03T05:29:19.914Z,93.23
2017-04-03T05:30:21.340Z,93.18
2017-04-03T05:31:22.786Z,93.13
2017-04-03T05:32:24.191Z,93.23
2017-04-03T05:33:25.617Z,93.51
2017-04-03T05:34:27.047Z,93.32
2017-04-03T05:35:28.473Z,92.75
2017-04-03T05:36:29.895Z,93.41
2017-04-03T05:37:31.342Z,93.13
2017-04-03T05:38:32.760Z,93.13
2017-04-03T05:39:34.197Z,93.13
2017-04-03T05:40:35.630Z,93.41
2017-04-03T05:41:37.052Z,92.75
2017-04-03T05:42:38.476Z,92.84
2017-04-03T05:43:39.905Z,93.13
2017-04-03T05:44:41.330Z,93.13
2017-04-03T05:45:42.766Z,92.75
2017-04-03T05:46:44.194Z,92.75
2017-04-03T05:47:45.613Z,91.80
2017-04-03T05:48:47.071Z,91.89
2017-04-03T05:49:48.497Z,92.08
2017-04-03T05:50:49.932Z,92.08
2017-04-03T05:51:51.359Z,91.70
2017-04-03T05:52:52.789Z,91.80
2017-04-03T05:53:54.218Z,92.08
2017-04-03T05:54:55.651Z,92.36
2017-04-03T05:55:57.081Z,92.08
2017-04-03T05:56:58.512Z,91.89
2017-04-03T05:57:59.944Z,91.99
2017-04-03T05:59:01.371Z,91.99
2017-04-03T06:00:02.812Z,91.70
2017-04-03T06:01:04.286Z,91.22
2017-04-03T06:02:05.716Z,91.99
2017-04-03T06:03:07.142Z,91.99
2017-04-03T06:04:08.577Z,91.61
2017-04-03T06:05:10.005Z,92.27
2017-04-03T06:06:11.435Z,92.13
2017-04-03T06:07:12.852Z,91.13
2017-04-03T06:08:14.284Z,91.42
2017-04-03T06:09:15.726Z,91.22
2017-04-03T06:10:17.155Z,90.70
2017-04-03T06:11:18.584Z,90.66
2017-04-03T06:12:20.013Z,90.66
2017-04-03T06:13:21.444Z,91.03
2017-04-03T06:14:22.869Z,91.13
2017-04-03T06:15:24.309Z,90.18
2017-04-03T06:16:25.737Z,90.56
2017-04-03T06:17:27.158Z,90.18
2017-04-03T06:18:28.591Z,90.56
2017-04-03T06:19:30.026Z,90.47
2017-04-03T06:20:31.453Z,90.37
2017-04-03T06:21:32.878Z,90.18
2017-04-03T06:22:34.306Z,89.70
2017-04-03T06:23:35.735Z,90.84
2017-04-03T06:24:37.164Z,90.56
2017-04-03T06:25:38.594Z,90.47
2017-04-03T06:26:40.018Z,90.66
2017-04-03T06:27:41.449Z,90.94
2017-04-03T06:28:42.886Z,91.13
2017-04-03T06:29:44.313Z,91.80
2017-04-03T06:30:45.752Z,91.42
2017-04-03T06:31:47.877Z,91.51
2017-04-03T06:32:49.310Z,91.32
2017-04-03T06:33:50.742Z,90.94
2017-04-03T06:34:52.206Z,90.66
2017-04-03T06:35:53.641Z,89.99
2017-04-03T06:36:55.063Z,90.28
2017-04-03T06:37:56.504Z,90.08
2017-04-03T06:38:57.930Z,90.18
2017-04-03T06:39:59.349Z,90.84
2017-04-03T06:41:00.782Z,90.22
2017-04-03T06:42:02.226Z,88.42
2017-04-03T06:43:03.671Z,87.56
2017-04-03T06:44:05.110Z,87.75
2017-04-03T06:45:07.506Z,88.04
2017-04-03T06:46:08.936Z,88.70
2017-04-03T06:47:10.373Z,89.84
2017-04-03T06:48:11.830Z,90.13
2017-04-03T06:49:13.256Z,90.22
2017-04-03T06:50:14.691Z,90.61
2017-04-03T06:51:16.119Z,90.51
2017-04-03T06:52:17.563Z,90.42
2017-04-03T06:53:18.982Z,90.75
2017-04-03T06:54:20.408Z,91.13
2017-04-03T06:55:21.927Z,91.22
2017-04-03T06:56:23.351Z,91.42
2017-04-03T06:57:24.788Z,90.80
2017-04-03T06:58:26.217Z,91.27
2017-04-03T06:59:27.648Z,90.80
2017-04-03T07:00:29.077Z,91.17
2017-04-03T07:01:30.507Z,90.42
2017-04-03T07:02:31.987Z,90.13
2017-04-03T07:03:33.417Z,90.89
2017-04-03T07:04:34.855Z,91.65
2017-04-03T07:05:36.289Z,89.56
2017-04-03T07:06:37.719Z,90.51
2017-04-03T07:07:39.151Z,90.61
2017-04-03T07:08:40.583Z,89.65
2017-04-03T07:09:42.012Z,89.51
2017-04-03T07:10:43.451Z,89.08
2017-04-03T07:11:44.880Z,89.08
2017-04-03T07:12:46.303Z,88.70
2017-04-03T07:13:47.754Z,88.08
2017-04-03T07:14:49.181Z,88.46
2017-04-03T07:15:50.699Z,88.75
2017-04-03T07:16:52.145Z,89.41
2017-04-03T07:17:53.673Z,88.37
2017-04-03T07:18:55.102Z,87.89
2017-04-03T07:19:56.530Z,88.27
2017-04-03T07:20:57.959Z,87.89
2017-04-03T07:21:59.503Z,88.37
2017-04-03T07:23:00.929Z,87.94
2017-04-03T07:24:02.364Z,87.70
2017-04-03T07:25:03.804Z,87.94
2017-04-03T07:26:05.270Z,88.32
2017-04-03T07:27:06.699Z,89.37
2017-04-03T07:28:08.120Z,88.93
2017-04-03T07:29:09.555Z,87.60
2017-04-03T07:30:10.978Z,87.56
2017-04-03T07:31:12.404Z,88.04
2017-04-03T07:32:13.877Z,87.23
2017-04-03T07:33:15.304Z,86.65
2017-04-03T07:34:16.740Z,86.65
2017-04-03T07:35:18.175Z,86.75
2017-04-03T07:36:19.604Z,86.36
2017-04-03T07:37:21.145Z,87.03
2017-04-03T07:38:22.579Z,86.46
2017-04-03T07:39:23.999Z,87.32
2017-04-03T07:40:25.486Z,87.03
2017-04-03T07:41:26.922Z,86.08
2017-04-03T07:42:28.352Z,86.55
2017-04-03T07:43:29.781Z,87.70
2017-04-03T07:44:31.209Z,86.75
2017-04-03T07:45:32.645Z,87.51
2017-04-03T07:46:34.074Z,87.41
2017-04-03T07:47:35.501Z,86.94
2017-04-03T07:48:36.933Z,86.75
2017-04-03T07:49:38.361Z,87.23
2017-04-03T07:50:39.921Z,86.75
2017-04-03T07:51:41.353Z,86.84
2017-04-03T07:52:42.789Z,86.13
2017-04-03T07:53:44.223Z,86.08
2017-04-03T07:54:45.654Z,85.13
2017-04-03T07:55:47.087Z,85.89
2017-04-03T07:56:48.517Z,85.60
2017-04-03T07:57:49.947Z,84.94
2017-04-03T07:58:51.372Z,86.79
2017-04-03T07:59:52.805Z,86.08
2017-04-03T08:00:54.236Z,85.36
2017-04-03T08:01:55.691Z,85.27
2017-04-03T08:02:57.106Z,88.51
2017-04-03T08:03:58.530Z,85.46
2017-04-03T08:04:59.956Z,84.36
2017-04-03T08:06:01.385Z,85.41
2017-04-03T08:07:02.822Z,85.60
2017-04-03T08:08:04.253Z,86.08
2017-04-03T08:09:05.689Z,85.99
2017-04-03T08:10:07.120Z,85.60
2017-04-03T08:11:08.558Z,84.65
2017-04-03T08:12:09.991Z,84.08
2017-04-03T08:13:11.426Z,85.41
2017-04-03T08:14:12.856Z,85.41
2017-04-03T08:15:14.289Z,85.41
2017-04-03T08:16:15.714Z,85.03
2017-04-03T08:17:17.153Z,85.70
2017-04-03T08:18:18.574Z,84.84
2017-04-03T08:19:20.010Z,84.84
2017-04-03T08:20:21.440Z,84.84
2017-04-03T08:21:22.870Z,84.94
2017-04-03T08:22:24.309Z,84.36
2017-04-03T08:23:25.734Z,83.89
2017-04-03T08:24:27.173Z,84.27
2017-04-03T08:25:28.602Z,84.75
2017-04-03T08:26:30.038Z,84.36
2017-04-03T08:27:31.465Z,83.61
2017-04-03T08:28:32.892Z,84.36
2017-04-03T08:29:34.321Z,84.08
2017-04-03T08:30:35.757Z,83.89
2017-04-03T08:31:37.203Z,84.08
2017-04-03T08:32:38.632Z,83.70
2017-04-03T08:33:40.062Z,84.08
2017-04-03T08:34:41.496Z,83.93
2017-04-03T08:35:42.920Z,83.13
2017-04-03T08:36:44.358Z,83.26
2017-04-03T08:37:45.784Z,83.45
2017-04-03T08:38:47.216Z,83.07
2017-04-03T08:39:48.662Z,82.65
2017-04-03T08:40:50.104Z,83.32
2017-04-03T08:41:51.545Z,83.13
2017-04-03T08:42:52.972Z,83.26
2017-04-03T08:43:54.426Z,82.21
2017-04-03T08:44:55.857Z,82.98
2017-04-03T08:45:57.390Z,82.41
2017-04-03T08:46:58.824Z,81.93
2017-04-03T08:48:00.254Z,82.60
2017-04-03T08:49:01.689Z,82.50
2017-04-03T08:50:03.129Z,82.98
2017-04-03T08:51:04.558Z,82.75
2017-04-03T08:52:05.988Z,83.13
2017-04-03T08:53:07.416Z,83.36
2017-04-03T08:54:08.850Z,83.36
2017-04-03T08:55:10.283Z,82.27
2017-04-03T08:56:11.720Z,82.27
2017-04-03T08:57:13.149Z,82.46
2017-04-03T08:58:14.574Z,82.08
2017-04-03T08:59:16.005Z,81.51
2017-04-03T09:00:17.432Z,81.70
2017-04-03T09:01:18.878Z,81.32
2017-04-03T09:02:20.294Z,80.79
2017-04-03T09:03:21.725Z,81.46
2017-04-03T09:04:23.161Z,80.79
2017-04-03T09:05:24.591Z,81.13
2017-04-03T09:06:26.019Z,81.74
2017-04-03T09:07:27.450Z,81.60
2017-04-03T09:08:28.880Z,81.60
2017-04-03T09:09:30.312Z,82.75
2017-04-03T09:10:31.758Z,82.08
2017-04-03T09:11:33.186Z,81.60
2017-04-03T09:12:34.617Z,81.41
2017-04-03T09:13:36.045Z,81.60
2017-04-03T09:14:37.474Z,81.41
2017-04-03T09:15:38.909Z,81.55
2017-04-03T09:16:40.346Z,81.74
2017-04-03T09:17:41.769Z,81.36
2017-04-03T09:18:43.209Z,81.46
2017-04-03T09:19:44.644Z,80.69
2017-04-03T09:20:46.076Z,81.07
2017-04-03T09:21:47.530Z,81.07
2017-04-03T09:22:48.969Z,80.69
2017-04-03T09:23:50.396Z,80.88
2017-04-03T09:24:51.837Z,80.22
2017-04-03T09:25:53.262Z,80.65
2017-04-03T09:26:54.697Z,81.36
2017-04-03T09:27:56.125Z,80.69
2017-04-03T09:28:57.574Z,79.93
2017-04-03T09:29:59.008Z,79.74
2017-04-03T09:31:00.443Z,79.83
2017-04-03T09:32:01.868Z,80.12
2017-04-03T09:33:03.309Z,79.46
2017-04-03T09:34:04.740Z,79.36
2017-04-03T09:35:06.185Z,79.27
2017-04-03T09:36:07.618Z,79.36
2017-04-03T09:37:09.064Z,78.98
2017-04-03T09:38:10.497Z,78.59
2017-04-03T09:39:11.930Z,78.88
2017-04-03T09:40:13.373Z,78.73
2017-04-03T09:41:14.804Z,78.64
2017-04-03T09:42:16.239Z,78.35
2017-04-03T09:43:17.741Z,78.59
2017-04-03T09:44:19.173Z,78.69
2017-04-03T09:45:20.616Z,78.69
2017-04-03T09:46:22.067Z,79.36
2017-04-03T09:47:23.495Z,80.12
2017-04-03T09:48:24.917Z,79.55
2017-04-03T09:49:26.367Z,79.46
2017-04-03T09:50:27.849Z,78.22
2017-04-03T09:51:29.328Z,78.88
2017-04-03T09:52:30.766Z,78.88
2017-04-03T09:53:32.196Z,78.69
2017-04-03T09:54:33.639Z,79.55
2017-04-03T09:55:35.075Z,79.07
2017-04-03T09:56:36.506Z,78.98
2017-04-03T09:57:37.970Z,79.74
2017-04-03T09:58:39.422Z,79.27
2017-04-03T09:59:40.882Z,77.93
2017-04-03T10:00:42.308Z,76.50
2017-04-03T10:01:43.745Z,76.16
2017-04-03T10:02:45.224Z,76.44
2017-04-03T10:03:46.659Z,75.96
2017-04-03T10:04:48.098Z,75.49
2017-04-03T10:05:49.533Z,74.54
2017-04-03T10:06:50.959Z,75.59
2017-04-03T10:07:52.396Z,75.96
2017-04-03T10:08:54.641Z,75.11
2017-04-03T10:09:56.068Z,75.11
2017-04-03T10:10:57.508Z,74.92
2017-04-03T10:11:58.939Z,75.11
2017-04-03T10:13:00.376Z,75.26
2017-04-03T10:14:01.807Z,75.45
2017-04-03T10:15:03.239Z,75.55
2017-04-03T10:16:04.682Z,77.30
2017-04-03T10:17:06.117Z,76.73
2017-04-03T10:18:07.559Z,76.57
2017-04-03T10:19:08.988Z,76.86
2017-04-03T10:20:10.430Z,75.15
2017-04-03T10:21:11.865Z,73.62
2017-04-03T10:22:13.303Z,73.05
2017-04-03T10:23:14.748Z,71.91
2017-04-03T10:24:16.182Z,72.28
2017-04-03T10:25:17.611Z,74.10
2017-04-03T10:26:19.044Z,75.24
2017-04-03T10:27:20.478Z,76.01
2017-04-03T10:28:21.919Z,75.72
2017-04-03T10:29:23.351Z,76.06
2017-04-03T10:30:24.786Z,75.68
2017-04-03T10:31:26.224Z,73.62
2017-04-03T10:32:27.655Z,72.57
2017-04-03T10:33:29.089Z,72.00
2017-04-03T10:34:30.522Z,72.38
2017-04-03T10:35:31.955Z,72.96
2017-04-03T10:36:33.395Z,73.33
2017-04-03T10:37:34.830Z,72.19
2017-04-03T10:38:36.287Z,72.96
2017-04-03T10:39:37.726Z,71.72
2017-04-03T10:40:39.270Z,70.98
2017-04-03T10:41:40.833Z,71.81
2017-04-03T10:42:42.266Z,73.14
2017-04-03T10:43:43.700Z,72.09
2017-04-03T10:44:45.126Z,72.28
2017-04-03T10:45:46.568Z,72.48
2017-04-03T10:46:48.001Z,73.14
2017-04-03T10:47:49.435Z,72.00
2017-04-03T10:48:50.871Z,73.72
2017-04-03T10:49:52.301Z,73.05
2017-04-03T10:50:53.733Z,73.43
2017-04-03T10:51:55.164Z,73.52
2017-04-03T10:52:56.590Z,72.13
2017-04-03T10:53:58.037Z,71.18
2017-04-03T10:54:59.463Z,70.00
2017-04-03T10:56:00.894Z,71.18
2017-04-03T10:57:02.337Z,71.43
2017-04-03T10:58:03.772Z,71.18
2017-04-03T10:59:05.220Z,70.89
2017-04-03T11:00:06.652Z,70.03
2017-04-03T11:01:08.087Z,69.84
2017-04-03T11:02:09.531Z,70.89
2017-04-03T11:03:10.966Z,70.61
2017-04-03T11:04:12.398Z,70.32
2017-04-03T11:05:13.830Z,70.22
2017-04-03T11:06:15.275Z,69.90
2017-04-03T11:07:16.747Z,71.27
2017-04-03T11:08:18.177Z,70.61
2017-04-03T11:09:19.617Z,69.90
2017-04-03T11:10:21.050Z,70.13
2017-04-03T11:11:22.488Z,70.89
2017-04-03T11:12:23.919Z,69.65
2017-04-03T11:13:25.350Z,70.42
2017-04-03T11:14:26.780Z,70.32
2017-04-03T11:15:28.212Z,70.61
2017-04-03T11:16:29.639Z,69.21
2017-04-03T11:17:31.973Z,68.73
2017-04-03T11:18:33.376Z,68.26
2017-04-03T11:19:34.810Z,68.82
2017-04-03T11:20:36.250Z,68.60
2017-04-03T11:21:37.683Z,69.78
2017-04-03T11:22:39.119Z,68.35
2017-04-03T11:23:40.565Z,68.44
2017-04-03T11:24:42.000Z,67.77
2017-04-03T11:25:43.435Z,68.03
2017-04-03T11:26:44.866Z,68.63
2017-04-03T11:27:46.294Z,68.38
2017-04-03T11:28:47.724Z,69.56
2017-04-03T11:29:49.157Z,69.17
2017-04-03T11:30:50.595Z,67.49
2017-04-03T11:31:52.036Z,66.66
2017-04-03T11:32:53.468Z,63.83
2017-04-03T11:33:54.895Z,63.16
2017-04-03T11:34:56.335Z,62.01
2017-04-03T11:35:57.766Z,61.38
2017-04-03T11:36:59.197Z,61.31
2017-04-03T11:38:00.641Z,60.77
2017-04-03T11:39:02.074Z,63.93
2017-04-03T11:40:04.159Z,61.18
2017-04-03T11:41:05.601Z,60.22
2017-04-03T11:42:07.034Z,57.70
2017-04-03T11:43:08.479Z,58.79
2017-04-03T11:44:09.917Z,58.50
2017-04-03T11:45:11.357Z,56.49
2017-04-03T11:46:12.816Z,57.83
2017-04-03T11:47:14.247Z,57.83
2017-04-03T11:48:15.690Z,56.99
2017-04-03T11:49:17.126Z,59.04
2017-04-03T11:50:18.556Z,55.82
2017-04-03T11:51:19.984Z,58.69
2017-04-03T11:52:21.433Z,57.23
2017-04-03T11:53:22.865Z,56.10
2017-04-03T11:54:24.305Z,57.80
2017-04-03T11:55:25.756Z,57.64
2017-04-03T11:56:27.189Z,57.83
2017-04-03T11:57:28.625Z,59.17
2017-04-03T11:58:30.067Z,57.61
2017-04-03T11:59:31.509Z,59.05
2017-04-03T12:00:32.936Z,57.13
2017-04-03T12:01:34.355Z,57.99
2017-04-03T12:02:35.800Z,58.63
2017-04-03T12:03:37.237Z,58.06
2017-04-03T12:04:38.676Z,59.01
2017-04-03T12:05:40.108Z,59.81
2017-04-03T12:06:41.546Z,59.20
2017-04-03T12:07:42.991Z,58.83
2017-04-03T12:08:44.426Z,59.49
2017-04-03T12:09:45.863Z,59.11
2017-04-03T12:10:47.321Z,58.73
2017-04-03T12:11:48.755Z,59.30
2017-04-03T12:12:50.196Z,58.63
2017-04-03T12:13:51.622Z,58.92
2017-04-03T12:14:53.071Z,57.68
2017-04-03T12:15:54.502Z,57.48
2017-04-03T12:16:56.502Z,58.63
2017-04-03T12:17:57.935Z,57.36
2017-04-03T12:18:59.366Z,59.11
2017-04-03T12:20:00.802Z,57.68
2017-04-03T12:21:02.239Z,56.53
2017-04-03T12:22:03.679Z,56.53
2017-04-03T12:23:05.117Z,57.48
2017-04-03T12:24:06.559Z,57.10
2017-04-03T12:25:07.998Z,57.99
2017-04-03T12:26:09.434Z,57.48
2017-04-03T12:27:10.866Z,58.63
2017-04-03T12:28:12.299Z,57.23
2017-04-03T12:29:13.735Z,56.72
2017-04-03T12:30:15.183Z,56.53
2017-04-03T12:31:17.486Z,57.10
2017-04-03T12:32:18.924Z,56.24
2017-04-03T12:33:20.354Z,56.15
2017-04-03T12:34:21.803Z,56.84
2017-04-03T12:35:23.234Z,55.83
2017-04-03T12:36:24.712Z,56.08
2017-04-03T12:37:26.156Z,55.98
2017-04-03T12:38:27.611Z,55.29
2017-04-03T12:39:29.048Z,54.23
2017-04-03T12:40:30.483Z,54.04
2017-04-03T12:41:31.993Z,55.12
2017-04-03T12:42:33.428Z,54.43
2017-04-03T12:43:34.876Z,55.22
2017-04-03T12:44:36.309Z,54.83
2017-04-03T12:45:37.747Z,54.07
2017-04-03T12:46:39.193Z,55.15
2017-04-03T12:47:40.638Z,55.91
2017-04-03T12:48:42.095Z,55.44
2017-04-03T12:49:43.540Z,54.86
2017-04-03T12:50:44.969Z,54.93
2017-04-03T12:51:46.408Z,56.65
2017-04-03T12:52:47.847Z,58.31
2017-04-03T12:53:49.285Z,57.73
2017-04-03T12:54:50.725Z,54.70
2017-04-03T12:55:52.169Z,53.33
2017-04-03T12:56:53.667Z,53.33
2017-04-03T12:57:55.219Z,53.07
2017-04-03T12:58:56.664Z,53.71
2017-04-03T12:59:58.093Z,54.38
2017-04-03T13:00:59.537Z,55.15
2017-04-03T13:02:00.960Z,54.22
2017-04-03T13:03:02.403Z,53.16
2017-04-03T13:04:03.845Z,53.07
2017-04-03T13:05:05.283Z,53.23
2017-04-03T13:06:06.719Z,52.91
2017-04-03T13:07:08.156Z,52.14
2017-04-03T13:08:09.589Z,50.58
2017-04-03T13:09:11.027Z,51.73
2017-04-03T13:10:12.460Z,52.85
2017-04-03T13:11:13.914Z,52.40